createdAt,value
2022-10-19T04:16:54.758Z,4.40
2022-10-19T04:19:21.206Z,4.55
2022-10-19T04:21:49.059Z,4.70
2022-10-19T04:24:18.315Z,4.13
2022-10-19T04:26:48.120Z,6.63
2022-10-19T04:29:19.849Z,5.35
2022-10-19T04:31:49.367Z,5.00
2022-10-19T04:34:16.998Z,4.30
2022-10-19T04:36:58.206Z,5.63
2022-10-19T04:39:25.228Z,6.57
2022-10-19T04:41:54.656Z,5.15
2022-10-19T04:44:26.620Z,5.97
2022-10-19T04:46:58.526Z,5.32
2022-10-19T04:49:32.569Z,6.28
2022-10-19T04:52:00.428Z,5.78
2022-10-19T04:54:37.858Z,6.55
2022-10-19T04:57:10.102Z,5.10
2022-10-19T04:59:36.727Z,6.15
2022-10-19T05:02:03.565Z,5.80
2022-10-19T05:04:32.853Z,6.50
2022-10-19T05:07:05.499Z,6.72
2022-10-19T05:09:32.141Z,5.95
2022-10-19T05:11:59.708Z,5.88
2022-10-19T05:14:29.390Z,5.90
2022-10-19T05:17:41.033Z,6.53
2022-10-19T05:20:08.556Z,6.35
2022-10-19T05:22:50.033Z,5.78
2022-10-19T05:25:16.931Z,5.85
2022-10-19T05:27:51.254Z,6.03
2022-10-19T05:30:28.303Z,6.75
2022-10-19T05:33:02.712Z,5.50
2022-10-19T05:35:29.677Z,6.07
2022-10-19T05:37:56.403Z,6.53
2022-10-19T05:40:32.477Z,7.00
2022-10-19T05:43:05.447Z,6.82
2022-10-19T05:45:53.721Z,8.13
2022-10-19T05:48:35.483Z,7.43
2022-10-19T05:51:09.122Z,8.00
2022-10-19T05:56:17.826Z,10.13
2022-10-19T05:58:47.903Z,7.65
2022-10-19T06:01:33.390Z,8.20
2022-10-19T06:04:08.641Z,8.40
2022-10-19T06:06:39.119Z,7.95
2022-10-19T06:09:13.556Z,6.25
2022-10-19T06:11:49.357Z,8.85
2022-10-19T06:14:25.478Z,8.15
2022-10-19T06:16:56.491Z,6.63
2022-10-19T06:19:29.811Z,7.60
2022-10-19T06:22:19.539Z,7.07
2022-10-19T06:24:56.150Z,6.30
2022-10-19T06:27:26.281Z,6.50
2022-10-19T06:29:55.922Z,7.75
2022-10-19T06:32:29.328Z,6.28
2022-10-19T06:35:17.964Z,6.13
2022-10-19T06:37:48.189Z,7.88
2022-10-19T06:40:29.097Z,6.85
2022-10-19T06:43:11.463Z,6.25
2022-10-19T06:45:49.366Z,6.82
2022-10-19T06:48:25.308Z,6.40
2022-10-19T06:51:05.901Z,4.93
2022-10-19T06:53:36.086Z,6.03
2022-10-19T06:56:13.786Z,5.35
2022-10-19T06:58:43.768Z,5.35
2022-10-19T07:01:22.130Z,5.57
2022-10-19T07:03:58.155Z,5.53
2022-10-19T07:06:35.732Z,4.80
2022-10-19T07:09:02.882Z,5.07
2022-10-19T07:11:29.475Z,4.88
2022-10-19T07:13:57.374Z,4.90
2022-10-19T07:16:26.211Z,5.05
2022-10-19T07:18:53.564Z,4.47
2022-10-19T07:21:25.521Z,4.18
2022-10-19T07:23:55.092Z,4.25
2022-10-19T07:26:28.270Z,4.97
2022-10-19T07:28:58.297Z,4.32
2022-10-19T07:31:26.806Z,3.70
2022-10-19T07:33:56.785Z,3.70
2022-10-19T07:36:24.860Z,3.92
2022-10-19T07:38:53.110Z,4.18
2022-10-19T07:41:22.325Z,3.88
2022-10-19T07:43:50.592Z,3.70
2022-10-19T07:46:20.238Z,3.75
2022-10-19T07:48:47.609Z,3.65
2022-10-19T07:51:19.124Z,3.13
2022-10-19T07:53:49.679Z,3.30
2022-10-19T07:56:31.427Z,3.35
2022-10-19T07:59:00.452Z,2.40
2022-10-19T08:01:36.602Z,2.33
2022-10-19T08:06:55.301Z,3.78
2022-10-19T08:09:54.647Z,2.90
2022-10-19T08:12:15.626Z,2.90
2022-10-19T08:14:45.610Z,3.63
2022-10-19T08:17:16.794Z,2.38
2022-10-19T08:19:44.940Z,3.03
2022-10-19T08:22:13.842Z,2.92
2022-10-19T08:24:40.720Z,2.60
2022-10-19T08:27:07.910Z,2.67
2022-10-19T08:29:35.580Z,2.67
2022-10-19T08:32:04.013Z,3.03
2022-10-19T08:34:32.100Z,2.83
2022-10-19T08:37:15.004Z,2.47
2022-10-19T08:39:52.867Z,2.80
2022-10-19T08:42:36.202Z,3.80
2022-10-19T08:45:20.700Z,4.20
2022-10-19T08:48:10.350Z,2.20
2022-10-19T08:50:44.024Z,2.67
2022-10-19T08:53:22.593Z,2.65
2022-10-19T08:56:32.539Z,2.58
2022-10-19T08:59:20.308Z,2.72
2022-10-19T09:01:54.435Z,3.03
2022-10-19T09:04:36.763Z,2.60
2022-10-19T09:07:23.699Z,2.92
2022-10-19T09:10:13.503Z,2.95
2022-10-19T09:13:24.981Z,3.20
2022-10-19T09:15:56.053Z,3.25
2022-10-19T09:18:30.966Z,2.67
2022-10-19T09:21:22.683Z,2.88
2022-10-19T09:24:09.308Z,2.97
2022-10-19T09:26:52.941Z,3.17
2022-10-19T09:29:49.627Z,3.38
2022-10-19T09:32:35.904Z,3.47
2022-10-19T09:35:18.950Z,3.00
2022-10-19T09:37:51.378Z,2.90
2022-10-19T09:40:28.046Z,3.85
2022-10-19T09:43:03.634Z,3.67
2022-10-19T09:45:45.674Z,3.75
2022-10-19T09:48:22.075Z,3.72
2022-10-19T09:51:18.601Z,3.40
2022-10-19T09:53:56.695Z,3.97
2022-10-19T09:56:28.135Z,3.78
2022-10-19T09:59:01.120Z,2.92
2022-10-19T10:02:17.629Z,3.63
2022-10-19T10:04:58.750Z,3.50
2022-10-19T10:07:40.679Z,4.70
2022-10-19T10:10:20.489Z,3.35
2022-10-19T10:13:01.672Z,4.43
2022-10-19T10:15:39.802Z,4.07
2022-10-19T10:18:08.671Z,3.58
2022-10-19T10:20:35.911Z,3.78
2022-10-19T10:23:08.276Z,4.25
2022-10-19T10:25:39.197Z,4.05
2022-10-19T10:28:19.956Z,4.03
2022-10-19T10:30:55.934Z,4.25
2022-10-19T10:34:12.128Z,3.72
2022-10-19T10:36:53.619Z,3.60
2022-10-19T10:39:25.047Z,4.13
2022-10-19T10:41:52.543Z,2.75
2022-10-19T10:44:23.380Z,4.00
2022-10-19T10:47:06.057Z,3.92
2022-10-19T10:49:43.448Z,3.60
2022-10-19T10:52:16.361Z,3.65
2022-10-19T10:55:09.089Z,4.00
2022-10-19T10:57:46.154Z,3.53
2022-10-19T11:00:19.651Z,4.25
2022-10-19T11:02:50.501Z,4.18
2022-10-19T11:05:29.332Z,3.33
2022-10-19T11:08:05.915Z,3.53
2022-10-19T11:10:46.440Z,2.88
2022-10-19T11:13:34.926Z,3.88
2022-10-19T11:16:18.847Z,3.25
2022-10-19T11:18:54.048Z,3.72
2022-10-19T11:21:39.595Z,3.38
2022-10-19T11:25:11.365Z,3.75
2022-10-19T11:28:04.399Z,4.03
2022-10-19T11:30:43.908Z,3.47
2022-10-19T11:33:37.434Z,2.95
2022-10-19T11:36:18.618Z,3.72
2022-10-19T11:39:01.820Z,3.70
2022-10-19T11:41:41.477Z,3.55
2022-10-19T11:44:48.254Z,4.20
2022-10-19T11:47:21.495Z,3.88
2022-10-19T11:52:51.069Z,5.15
2022-10-19T11:55:37.721Z,4.45
2022-10-19T11:58:23.383Z,4.43
2022-10-19T12:01:25.350Z,4.75
2022-10-19T12:04:11.423Z,4.70
2022-10-19T12:07:05.728Z,4.75
2022-10-19T12:09:37.098Z,4.90
2022-10-19T12:12:18.220Z,4.53
2022-10-19T12:14:51.990Z,3.80
2022-10-19T12:17:32.969Z,4.80
2022-10-19T12:20:14.884Z,4.20
2022-10-19T12:22:46.496Z,4.43
2022-10-19T12:25:17.789Z,3.75
2022-10-19T12:27:47.881Z,4.68
2022-10-19T12:30:28.583Z,3.97
2022-10-19T12:33:25.397Z,3.42
2022-10-19T12:36:18.091Z,4.68
2022-10-19T12:38:50.937Z,4.60
2022-10-19T12:41:31.412Z,3.38
2022-10-19T12:44:29.751Z,3.58
2022-10-19T12:47:10.219Z,3.22
2022-10-19T12:49:48.926Z,3.25
2022-10-19T12:52:49.020Z,3.08
2022-10-19T12:55:15.710Z,3.53
2022-10-19T12:57:58.146Z,3.40
2022-10-19T13:00:29.056Z,3.92
2022-10-19T13:03:24.974Z,3.75
2022-10-19T13:06:20.663Z,3.47
2022-10-19T13:09:01.499Z,3.30
2022-10-19T13:11:31.108Z,4.07
2022-10-19T13:14:45.747Z,3.40
2022-10-19T13:17:49.990Z,3.63
2022-10-19T13:20:24.912Z,4.32
2022-10-19T13:23:12.103Z,3.58
2022-10-19T13:25:45.536Z,3.72
2022-10-19T13:28:15.560Z,3.20
2022-10-19T13:30:54.615Z,3.90
2022-10-19T13:33:31.181Z,3.95
2022-10-19T13:36:05.796Z,4.03
2022-10-19T13:38:50.571Z,3.85
2022-10-19T13:41:25.696Z,4.10
2022-10-19T13:43:58.333Z,4.15
2022-10-19T13:50:28.272Z,4.20
2022-10-19T13:53:16.655Z,4.05
2022-10-19T13:56:15.199Z,3.50
2022-10-19T13:59:02.845Z,3.75
2022-10-19T14:02:02.390Z,3.05
2022-10-19T14:04:59.754Z,3.45
2022-10-19T14:07:38.682Z,3.75
2022-10-19T14:10:17.544Z,3.15
2022-10-19T14:12:46.201Z,2.95
2022-10-19T14:15:28.102Z,3.05
2022-10-19T14:17:56.181Z,3.05
2022-10-19T14:21:21.040Z,3.17
2022-10-19T14:26:19.562Z,2.67
2022-10-19T14:28:53.231Z,2.90
2022-10-19T14:31:49.730Z,2.97
2022-10-19T14:34:19.231Z,3.00
2022-10-19T14:36:56.905Z,2.05
2022-10-19T14:39:32.286Z,3.10
2022-10-19T14:42:09.946Z,2.70
2022-10-19T14:45:12.138Z,3.05
2022-10-19T14:47:59.550Z,2.92
2022-10-19T14:50:43.098Z,3.00
2022-10-19T14:53:22.804Z,3.25
2022-10-19T14:55:58.807Z,2.95
2022-10-19T14:58:36.379Z,2.70
2022-10-19T15:01:06.771Z,2.53
2022-10-19T15:03:33.942Z,2.70
2022-10-19T15:06:04.333Z,2.85
2022-10-19T15:08:40.200Z,2.63
2022-10-19T15:11:09.556Z,2.85
2022-10-19T15:13:42.310Z,3.00
2022-10-19T15:16:42.025Z,2.42
2022-10-19T15:19:24.208Z,2.40
2022-10-19T15:22:38.120Z,2.55
2022-10-19T15:25:07.307Z,2.70
2022-10-19T15:27:36.764Z,3.15
2022-10-19T15:30:22.521Z,3.53
2022-10-19T15:33:02.587Z,2.65
2022-10-19T15:35:30.315Z,2.60
2022-10-19T15:38:15.465Z,2.85
2022-10-19T15:40:44.082Z,2.85
2022-10-19T15:43:33.626Z,3.03
2022-10-19T15:46:05.128Z,2.63
2022-10-19T15:48:41.136Z,3.25
2022-10-19T15:51:26.228Z,3.10
2022-10-19T15:54:04.847Z,2.83
2022-10-19T15:56:34.995Z,4.00
2022-10-19T15:59:04.369Z,4.43
2022-10-19T16:01:35.305Z,3.50
2022-10-19T16:04:08.878Z,3.25
2022-10-19T16:06:40.940Z,2.88
2022-10-19T16:09:14.291Z,4.32
2022-10-19T16:11:57.549Z,3.75
2022-10-19T16:14:28.431Z,4.43
2022-10-19T16:16:55.809Z,3.67
2022-10-19T16:19:45.824Z,4.97
2022-10-19T16:22:16.094Z,4.90
2022-10-19T16:24:42.938Z,4.70
2022-10-19T16:27:09.472Z,5.78
2022-10-19T16:29:35.965Z,4.85
2022-10-19T16:32:02.518Z,5.40
2022-10-19T16:34:29.077Z,5.18
2022-10-19T16:36:55.543Z,5.18
2022-10-19T16:39:22.206Z,4.20
2022-10-19T16:41:52.244Z,4.75
2022-10-19T16:44:18.684Z,5.13
2022-10-19T16:46:45.214Z,5.43
2022-10-19T16:49:11.663Z,5.60
2022-10-19T16:51:41.788Z,6.18
2022-10-19T16:54:10.775Z,5.78
2022-10-19T16:56:44.602Z,5.45
2022-10-19T17:01:40.670Z,5.10
2022-10-19T17:04:07.191Z,4.75
2022-10-19T17:06:34.216Z,4.57
2022-10-19T17:11:47.179Z,5.32
2022-10-19T17:14:13.762Z,5.35
2022-10-19T17:16:40.568Z,5.45
2022-10-19T17:19:08.335Z,4.85
2022-10-19T17:21:39.745Z,5.00
2022-10-19T17:24:08.355Z,5.90
2022-10-19T17:26:38.548Z,6.35
2022-10-19T17:29:06.404Z,5.70
2022-10-19T17:31:33.136Z,5.03
2022-10-19T17:34:00.722Z,5.53
2022-10-19T17:36:30.180Z,5.47
2022-10-19T17:39:02.054Z,5.45
2022-10-19T17:41:29.208Z,5.78
2022-10-19T17:43:56.768Z,6.18
2022-10-19T17:46:26.530Z,5.82
2022-10-19T17:48:53.774Z,6.28
2022-10-19T17:51:32.400Z,6.28
2022-10-19T17:54:11.458Z,5.95
2022-10-19T17:56:54.340Z,6.50
2022-10-19T17:59:30.176Z,6.72
2022-10-19T18:02:02.394Z,5.57
2022-10-19T18:04:28.954Z,6.32
2022-10-19T18:06:58.743Z,7.50
2022-10-19T18:09:25.320Z,6.45
2022-10-19T18:11:51.776Z,6.35
2022-10-19T18:15:14.171Z,6.55
2022-10-19T18:17:40.724Z,6.57
2022-10-19T18:20:07.995Z,5.82
2022-10-19T18:22:34.653Z,6.05
2022-10-19T18:25:01.475Z,6.50
2022-10-19T18:27:28.202Z,6.38
2022-10-19T18:29:54.628Z,6.20
2022-10-19T18:32:21.118Z,6.43
2022-10-19T18:34:47.700Z,6.30
2022-10-19T18:37:14.134Z,6.57
2022-10-19T18:39:40.740Z,6.30
2022-10-19T18:42:07.196Z,6.63
2022-10-19T18:44:33.910Z,6.72
2022-10-19T18:47:00.434Z,6.05
2022-10-19T18:49:27.022Z,6.38
2022-10-19T18:51:55.565Z,5.97
2022-10-19T18:54:29.060Z,6.25
2022-10-19T18:56:55.625Z,7.13
2022-10-19T18:59:22.749Z,6.90
2022-10-19T19:01:49.320Z,6.15
2022-10-19T19:04:15.821Z,6.68
2022-10-19T19:06:42.409Z,6.38
2022-10-19T19:09:11.450Z,6.40
2022-10-19T19:11:40.700Z,6.03
2022-10-19T19:14:12.077Z,6.65
2022-10-19T19:16:39.482Z,6.57
2022-10-19T19:19:06.322Z,6.15
2022-10-19T19:21:36.291Z,5.90
2022-10-19T19:24:05.903Z,6.25
2022-10-19T19:26:37.663Z,5.93
2022-10-19T19:29:04.510Z,6.68
2022-10-19T19:31:31.495Z,6.55
2022-10-19T19:34:00.960Z,6.65
2022-10-19T19:36:27.985Z,8.65
2022-10-19T19:38:56.564Z,6.68
2022-10-19T19:41:23.105Z,6.63
2022-10-19T19:43:51.701Z,6.10
2022-10-19T19:51:37.369Z,6.72
2022-10-19T19:54:11.174Z,7.63
2022-10-19T19:56:39.205Z,6.43
2022-10-19T19:59:05.729Z,6.78
2022-10-19T20:01:32.880Z,6.30
2022-10-19T20:06:30.967Z,6.22
2022-10-19T20:08:57.615Z,5.97
2022-10-19T20:11:43.832Z,5.10
2022-10-19T20:14:11.608Z,6.10
2022-10-19T20:16:38.141Z,6.30
2022-10-19T20:19:10.858Z,4.80
2022-10-19T20:21:38.133Z,5.22
2022-10-19T20:24:05.080Z,5.72
2022-10-19T20:26:32.052Z,5.95
2022-10-19T20:28:58.806Z,5.35
2022-10-19T20:31:25.597Z,5.90
2022-10-19T20:33:52.252Z,6.25
2022-10-19T20:36:21.623Z,5.82
2022-10-19T20:38:56.539Z,5.85
2022-10-19T20:41:26.118Z,5.80
2022-10-19T20:43:53.828Z,6.35
2022-10-19T20:46:24.005Z,5.72
2022-10-19T20:48:51.405Z,6.10
2022-10-19T20:51:20.822Z,6.82
2022-10-19T20:53:50.521Z,6.65
2022-10-19T20:56:21.584Z,5.55
2022-10-19T20:58:50.217Z,6.07
2022-10-19T21:01:18.585Z,6.15
2022-10-19T21:03:47.239Z,6.05
2022-10-19T21:06:14.038Z,5.05
2022-10-19T21:08:40.701Z,6.10
2022-10-19T21:11:19.659Z,5.72
2022-10-19T21:13:47.326Z,5.43
2022-10-19T21:16:16.101Z,5.65
2022-10-19T21:18:43.797Z,5.25
2022-10-19T21:21:22.533Z,5.75
2022-10-19T21:23:54.044Z,5.55
2022-10-19T21:26:20.601Z,5.55
2022-10-19T21:28:48.671Z,5.80
2022-10-19T21:31:16.769Z,5.30
2022-10-19T21:33:43.853Z,4.47
2022-10-19T21:36:11.517Z,5.15
2022-10-19T21:38:38.438Z,4.97
2022-10-19T21:41:11.867Z,4.93
2022-10-19T21:43:38.350Z,4.63
2022-10-19T21:46:07.216Z,5.82
2022-10-19T21:48:34.351Z,5.30
2022-10-19T21:51:12.824Z,6.03
2022-10-19T21:53:39.246Z,4.55
2022-10-19T21:56:05.909Z,4.70
2022-10-19T21:58:32.362Z,4.97
